Time;durP1;ratioP1;P1;durP2;ratioP2;P2;SDS_P1;SDS_P2;PMS_P1;PMS_P2;Temp;Humidity;BMP_temperature;BMP_pressure;BME280_temperature;BME280_humidity;BME280_pressure;Samples;Min_cycle;Max_cycle;Signal;HPM_P1;HPM_P2
2022/04/15 00:02:25;;;;;;;60.60;31.75;;;;;;;9.98;82.40;102633.56;5007991;28;20054;-63
2022/04/15 00:04:50;;;;;;;71.78;35.13;;;;;;;9.98;82.76;102632.66;5008132;28;20029;-63
2022/04/15 00:07:17;;;;;;;66.90;34.22;;;;;;;9.98;82.90;102635.28;5008519;28;20091;-63
2022/04/15 00:09:42;;;;;;;71.60;36.60;;;;;;;10.02;83.61;102639.66;5006694;28;20037;-62
2022/04/15 00:12:10;;;;;;;69.82;34.28;;;;;;;10.11;83.16;102636.13;5007657;28;20026;-63
2022/04/15 00:14:36;;;;;;;70.88;36.47;;;;;;;10.11;83.10;102641.41;5007028;28;20021;-63
2022/04/15 00:17:01;;;;;;;68.68;34.35;;;;;;;10.11;82.95;102637.03;5006477;28;20480;-63
2022/04/15 00:19:27;;;;;;;70.95;34.03;;;;;;;9.99;83.15;102642.31;5006305;28;20037;-63
2022/04/15 00:21:52;;;;;;;67.00;32.47;;;;;;;9.96;83.17;102634.41;5006054;28;20038;-63
2022/04/15 00:24:17;;;;;;;71.32;35.35;;;;;;;9.88;83.49;102637.09;5006200;28;20053;-63
2022/04/15 00:26:43;;;;;;;75.85;38.50;;;;;;;9.92;83.58;102640.56;5005927;28;20054;-62
2022/04/15 00:29:08;;;;;;;73.07;36.10;;;;;;;9.90;83.83;102642.34;5006588;28;20025;-63
2022/04/15 00:31:34;;;;;;;80.07;37.53;;;;;;;9.91;84.07;102646.72;5007805;28;20085;-63
2022/04/15 00:34:00;;;;;;;82.30;38.65;;;;;;;9.82;84.64;102645.00;5007236;28;20029;-63
2022/04/15 00:36:26;;;;;;;77.03;39.25;;;;;;;9.86;84.41;102645.00;5007217;28;20030;-63
2022/04/15 00:38:51;;;;;;;77.45;38.42;;;;;;;9.88;84.33;102649.38;5006112;28;20057;-63
2022/04/15 00:41:16;;;;;;;72.72;36.58;;;;;;;9.92;84.18;102649.38;5005855;28;20330;-63
2022/04/15 00:43:42;;;;;;;82.30;38.72;;;;;;;9.96;83.94;102655.47;5007350;28;20022;-63
2022/04/15 00:46:08;;;;;;;74.63;35.50;;;;;;;9.95;83.97;102652.00;5006588;28;20194;-63
2022/04/15 00:48:35;;;;;;;76.28;38.17;;;;;;;9.89;84.04;102657.25;5007320;28;20387;-63
2022/04/15 00:51:01;;;;;;;63.40;33.78;;;;;;;9.88;84.06;102658.16;5007573;28;20041;-63
2022/04/15 00:53:28;;;;;;;71.82;34.05;;;;;;;9.83;83.95;102658.16;5004923;28;20021;-63
2022/04/15 00:56:01;;;;;;;74.88;33.53;;;;;;;9.80;83.73;102662.53;5007185;28;20029;-64
2022/04/15 00:58:27;;;;;;;78.15;38.65;;;;;;;9.73;84.05;102653.78;5006116;28;20099;-63
2022/04/15 01:00:54;;;;;;;80.57;36.08;;;;;;;9.76;84.20;102658.16;5006928;28;20034;-63
2022/04/15 01:03:21;;;;;;;83.75;39.70;;;;;;;9.62;84.77;102659.03;5007078;28;20046;-60
2022/04/15 01:05:49;;;;;;;88.45;42.95;;;;;;;9.64;85.68;102654.66;5006357;28;20037;-64
2022/04/15 01:08:17;;;;;;;96.93;43.10;;;;;;;9.70;85.90;102649.38;5006291;28;20068;-63
2022/04/15 01:10:44;;;;;;;94.28;42.83;;;;;;;9.68;86.61;102653.78;5004628;28;20105;-63
2022/04/15 01:13:10;;;;;;;106.18;44.33;;;;;;;9.66;87.20;102650.25;5005743;28;20033;-63
2022/04/15 01:15:35;;;;;;;98.80;42.97;;;;;;;9.79;86.67;102653.78;5004290;28;20030;-61
2022/04/15 01:18:00;;;;;;;99.57;42.95;;;;;;;9.76;87.00;102656.41;5006615;28;20041;-63
2022/04/15 01:20:26;;;;;;;96.65;40.75;;;;;;;9.79;87.03;102656.41;5005356;28;20060;-63
2022/04/15 01:23:11;;;;;;;113.78;41.97;;;;;;;9.68;87.14;102663.44;5005519;28;20022;-62
2022/04/15 01:25:37;;;;;;;86.75;37.83;;;;;;;9.75;86.83;102667.81;4987020;28;20034;-62
2022/04/15 01:28:03;;;;;;;91.57;39.92;;;;;;;9.83;86.74;102670.44;4986451;28;20025;-64
2022/04/15 01:30:28;;;;;;;74.90;37.28;;;;;;;9.95;86.34;102664.28;4986470;28;20022;-64
2022/04/15 01:32:53;;;;;;;106.35;40.70;;;;;;;9.82;86.65;102660.78;4993033;28;20052;-63
2022/04/15 01:35:19;;;;;;;101.05;37.47;;;;;;;9.87;86.37;102669.53;5006635;28;20056;-64
2022/04/15 01:37:46;;;;;;;110.90;35.53;;;;;;;9.86;86.47;102662.53;5005595;28;20029;-62
2022/04/15 01:40:13;;;;;;;122.22;36.28;;;;;;;9.81;86.29;102662.53;5005645;28;20485;-63
2022/04/15 01:42:39;;;;;;;161.00;37.08;;;;;;;9.83;86.51;102665.16;5004009;28;20034;-63
2022/04/15 01:45:05;;;;;;;199.25;40.53;;;;;;;9.76;87.02;102661.69;5006305;28;20469;-63
2022/04/15 01:47:30;;;;;;;180.93;38.53;;;;;;;9.75;87.07;102665.16;5005392;28;20443;-62
2022/04/15 01:49:56;;;;;;;167.38;36.58;;;;;;;9.68;87.33;102668.69;5004404;28;20464;-63
2022/04/15 01:52:21;;;;;;;71.82;31.27;;;;;;;9.75;87.28;102667.81;5005983;28;20057;-64
2022/04/15 01:54:47;;;;;;;111.68;38.10;;;;;;;9.69;87.74;102673.97;5004997;28;20468;-64
2022/04/15 01:57:13;;;;;;;101.93;39.33;;;;;;;9.64;88.09;102677.47;5005700;28;20034;-64
2022/04/15 01:59:39;;;;;;;88.88;37.67;;;;;;;9.75;87.80;102672.22;5004522;28;20041;-64
2022/04/15 02:02:05;;;;;;;74.82;35.65;;;;;;;9.75;87.71;102680.97;5005862;28;20420;-63
2022/04/15 02:04:30;;;;;;;123.20;35.05;;;;;;;9.63;87.54;102684.47;5004901;28;20022;-64
2022/04/15 02:06:56;;;;;;;83.78;35.30;;;;;;;9.59;87.82;102682.72;5005420;28;20022;-64
2022/04/15 02:09:21;;;;;;;89.75;35.28;;;;;;;9.72;87.22;102683.59;5004115;28;20030;-64
2022/04/15 02:11:47;;;;;;;115.90;35.45;;;;;;;9.63;87.46;102689.75;5006098;28;20026;-63
2022/04/15 02:14:13;;;;;;;81.25;34.90;;;;;;;9.52;88.28;102692.41;5005857;28;20504;-63
2022/04/15 02:16:39;;;;;;;68.22;33.45;;;;;;;9.77;86.96;102695.00;5005592;28;20026;-63
2022/04/15 02:19:04;;;;;;;55.75;29.58;;;;;;;9.47;87.06;102699.41;5004901;28;20061;-62
2022/04/15 02:21:30;;;;;;;51.33;28.33;;;;;;;9.48;87.06;102698.50;5005132;28;20254;-63
2022/04/15 02:23:55;;;;;;;43.05;27.10;;;;;;;9.57;86.78;102697.66;5004796;28;20346;-63
2022/04/15 02:26:20;;;;;;;50.08;28.02;;;;;;;9.61;87.08;102700.28;5002817;28;20504;-64
2022/04/15 02:28:46;;;;;;;43.45;26.77;;;;;;;9.52;86.64;102702.94;5005872;28;20072;-64
2022/04/15 02:31:11;;;;;;;47.83;27.45;;;;;;;9.64;86.90;102696.78;5004624;28;20368;-63
2022/04/15 02:33:36;;;;;;;46.75;25.83;;;;;;;9.81;86.06;102707.28;5005239;28;20334;-63
2022/04/15 02:36:02;;;;;;;38.47;24.40;;;;;;;9.83;85.72;102702.91;5004727;28;20037;-63
2022/04/15 02:38:28;;;;;;;37.80;24.35;;;;;;;9.80;85.82;102702.91;5003777;28;20048;-62
2022/04/15 02:40:53;;;;;;;37.50;23.13;;;;;;;9.76;85.52;102703.81;5003977;28;20381;-62
2022/04/15 02:43:20;;;;;;;37.17;22.23;;;;;;;9.62;85.83;102698.53;5005152;28;20018;-64
2022/04/15 02:45:46;;;;;;;32.30;21.25;;;;;;;9.60;85.85;102702.91;5005520;28;20026;-63
2022/04/15 02:48:12;;;;;;;35.20;19.63;;;;;;;9.80;85.36;102708.19;5002875;28;20037;-62
2022/04/15 02:50:39;;;;;;;38.35;20.92;;;;;;;9.71;85.25;102710.81;5002926;28;20468;-63
2022/04/15 02:53:04;;;;;;;28.92;18.70;;;;;;;9.64;84.81;102703.78;5004410;28;20048;-63
2022/04/15 02:55:29;;;;;;;28.95;17.83;;;;;;;9.78;84.37;102706.44;5003062;28;20030;-63
2022/04/15 02:57:55;;;;;;;31.55;18.73;;;;;;;9.64;84.53;102709.06;5005518;28;20117;-62
2022/04/15 03:00:20;;;;;;;30.45;18.02;;;;;;;9.61;84.86;102707.31;5004626;28;20081;-57
2022/04/15 03:02:46;;;;;;;32.55;19.58;;;;;;;9.60;84.97;102709.06;5005548;28;20416;-64
2022/04/15 03:05:11;;;;;;;30.00;19.10;;;;;;;9.66;84.69;102707.31;5004765;28;20022;-63
2022/04/15 03:07:37;;;;;;;27.42;17.15;;;;;;;9.31;85.53;102723.06;5005049;28;20026;-63
2022/04/15 03:10:03;;;;;;;29.08;18.95;;;;;;;9.41;85.97;102723.97;5003034;28;20022;-62
2022/04/15 03:12:33;;;;;;;27.98;18.88;;;;;;;9.59;84.97;102716.94;5003248;28;20468;-62
2022/04/15 03:14:58;;;;;;;31.30;17.45;;;;;;;9.57;84.33;102716.09;5003599;28;20389;-64
2022/04/15 03:17:23;;;;;;;23.80;15.68;;;;;;;9.63;84.30;102723.09;5006594;28;20176;-64
2022/04/15 03:19:49;;;;;;;26.98;17.90;;;;;;;9.67;84.23;102727.50;5009010;28;20055;-64
2022/04/15 03:22:16;;;;;;;31.95;17.83;;;;;;;9.37;85.11;102737.09;5008549;28;20018;-62
2022/04/15 03:24:41;;;;;;;29.02;16.30;;;;;;;9.58;84.69;102736.25;5006713;28;20294;-64
2022/04/15 03:27:06;;;;;;;31.35;17.77;;;;;;;9.44;85.25;102741.50;5007750;28;20476;-63
2022/04/15 03:29:32;;;;;;;29.50;16.40;;;;;;;9.58;84.42;102744.16;5006279;28;20034;-63
2022/04/15 03:31:57;;;;;;;20.92;14.38;;;;;;;9.76;83.78;102735.41;5008837;28;20038;-63
2022/04/15 03:34:22;;;;;;;23.83;14.93;;;;;;;9.63;84.13;102741.53;5007678;28;20037;-63
2022/04/15 03:36:48;;;;;;;22.27;16.48;;;;;;;9.64;84.51;102738.91;5007791;28;20025;-64
2022/04/15 03:39:13;;;;;;;26.42;14.60;;;;;;;9.72;83.79;102745.03;5006996;28;20540;-64
2022/04/15 03:41:39;;;;;;;23.05;14.60;;;;;;;9.66;83.96;102744.16;5007839;28;20396;-65
2022/04/15 03:44:05;;;;;;;26.90;15.07;;;;;;;9.51;84.53;102747.66;5007902;28;20611;-63
2022/04/15 03:46:30;;;;;;;26.90;15.13;;;;;;;9.54;84.46;102748.53;5007089;28;20022;-63
2022/04/15 03:48:55;;;;;;;22.67;13.93;;;;;;;9.52;84.30;102746.78;5008810;28;20030;-63
2022/04/15 03:51:21;;;;;;;26.65;15.23;;;;;;;9.45;84.53;102756.44;5007248;28;20456;-66
2022/04/15 03:53:46;;;;;;;24.08;15.68;;;;;;;9.28;85.23;102749.38;5008078;28;20026;-64
2022/04/15 03:56:11;;;;;;;22.25;15.10;;;;;;;9.43;85.40;102750.28;5006119;28;20034;-63
2022/04/15 03:58:37;;;;;;;25.90;14.27;;;;;;;9.41;85.18;102754.63;5008195;28;20022;-63
2022/04/15 04:01:03;;;;;;;24.95;13.93;;;;;;;9.44;85.23;102754.66;5007358;28;20375;-64
2022/04/15 04:03:28;;;;;;;28.88;14.60;;;;;;;9.57;84.21;102756.41;5007719;28;20054;-64
2022/04/15 04:05:53;;;;;;;22.00;12.65;;;;;;;9.72;83.53;102757.31;5006195;28;20033;-67
2022/04/15 04:08:19;;;;;;;20.30;12.10;;;;;;;9.71;83.45;102755.56;5007224;28;20033;-64
2022/04/15 04:10:44;;;;;;;20.45;12.48;;;;;;;9.72;83.80;102760.81;5004598;28;20026;-64
2022/04/15 04:13:09;;;;;;;21.92;13.02;;;;;;;9.77;83.42;102763.47;5007884;28;20140;-65
2022/04/15 04:15:35;;;;;;;21.90;12.90;;;;;;;9.68;83.43;102759.06;5007728;28;20157;-64
2022/04/15 04:18:01;;;;;;;23.60;12.30;;;;;;;9.71;83.38;102759.09;5007134;28;20038;-65
2022/04/15 04:20:27;;;;;;;17.27;12.18;;;;;;;9.64;83.67;102759.06;5007456;28;20041;-62
2022/04/15 04:22:52;;;;;;;18.63;12.20;;;;;;;9.54;83.76;102764.31;5005767;28;20030;-62
2022/04/15 04:25:17;;;;;;;20.42;11.13;;;;;;;9.69;83.36;102758.19;5006243;28;20025;-64
2022/04/15 04:27:43;;;;;;;24.65;12.52;;;;;;;9.58;83.54;102766.06;5005515;28;20045;-64
2022/04/15 04:30:12;;;;;;;17.88;11.50;;;;;;;9.69;83.20;102759.97;5006974;28;20036;-64
2022/04/15 04:32:37;;;;;;;23.85;13.77;;;;;;;9.64;83.47;102762.59;5006533;28;20156;-62
2022/04/15 04:35:03;;;;;;;21.65;13.75;;;;;;;9.57;84.08;102766.94;5007360;28;20105;-65
2022/04/15 04:37:29;;;;;;;20.85;14.13;;;;;;;9.72;83.83;102767.84;5006399;28;20096;-65
2022/04/15 04:39:54;;;;;;;24.63;13.40;;;;;;;9.74;83.67;102766.09;5006884;28;20022;-65
2022/04/15 04:42:21;;;;;;;18.65;13.43;;;;;;;9.84;83.24;102769.59;5006409;28;20072;-64
2022/04/15 04:44:46;;;;;;;19.23;13.60;;;;;;;9.76;83.55;102774.88;5007863;28;20026;-64
2022/04/15 04:47:12;;;;;;;26.73;13.90;;;;;;;9.69;84.02;102781.03;5006721;28;20021;-67
2022/04/15 04:49:37;;;;;;;18.67;11.52;;;;;;;9.94;83.24;102770.50;5006971;28;20026;-63
2022/04/15 04:52:04;;;;;;;20.08;13.13;;;;;;;9.80;83.30;102778.38;5006110;28;20032;-62
2022/04/15 04:54:30;;;;;;;16.38;12.15;;;;;;;9.89;83.01;102778.38;5003157;28;20030;-62
2022/04/15 04:56:55;;;;;;;18.73;13.20;;;;;;;9.89;83.09;102781.03;5005450;28;20037;-64
2022/04/15 04:59:23;;;;;;;18.75;12.63;;;;;;;9.94;83.36;102786.28;5005816;28;20030;-64
2022/04/15 05:01:48;;;;;;;31.02;13.38;;;;;;;9.93;82.37;102779.28;5006202;28;20427;-63
2022/04/15 05:04:13;;;;;;;24.17;13.35;;;;;;;9.96;82.38;102790.69;5005569;28;20033;-63
2022/04/15 05:06:39;;;;;;;26.05;13.55;;;;;;;9.85;82.43;102787.19;5004280;28;20078;-64
2022/04/15 05:09:04;;;;;;;21.67;13.80;;;;;;;10.05;82.33;102794.22;5006066;28;20109;-63
2022/04/15 05:11:29;;;;;;;21.33;13.85;;;;;;;10.10;81.99;102793.31;5005810;28;20477;-62
2022/04/15 05:13:55;;;;;;;22.80;14.30;;;;;;;10.04;81.79;102793.31;5003973;28;20462;-64
2022/04/15 05:16:21;;;;;;;21.90;14.38;;;;;;;10.11;82.25;102805.59;5006808;28;20022;-61
2022/04/15 05:18:46;;;;;;;26.23;14.20;;;;;;;10.10;81.75;102809.13;5006137;28;20034;-63
2022/04/15 05:21:13;;;;;;;28.92;15.75;;;;;;;10.06;81.76;102802.06;5005328;28;20029;-64
2022/04/15 05:23:38;;;;;;;21.05;13.90;;;;;;;10.10;81.76;102805.59;5004744;28;20117;-63
2022/04/15 05:26:03;;;;;;;29.63;15.38;;;;;;;10.18;81.96;102810.88;5006448;28;20108;-62
2022/04/15 05:28:31;;;;;;;27.08;15.35;;;;;;;10.28;81.67;102817.00;5004179;28;20445;-63
2022/04/15 05:30:56;;;;;;;25.27;14.70;;;;;;;10.37;81.27;102817.00;5004727;28;20052;-64
2022/04/15 05:33:22;;;;;;;25.42;14.80;;;;;;;10.38;81.00;102817.88;5004615;28;20030;-63
2022/04/15 05:35:47;;;;;;;20.10;13.93;;;;;;;10.17;81.70;102830.19;5006699;28;20026;-62
2022/04/15 05:38:12;;;;;;;24.02;15.02;;;;;;;10.11;81.40;102831.94;5003422;28;20136;-63
2022/04/15 05:40:38;;;;;;;23.83;14.38;;;;;;;10.29;81.36;102835.44;5004617;28;20030;-63
2022/04/15 05:43:04;;;;;;;22.15;14.15;;;;;;;10.01;81.70;102840.72;5005228;28;20025;-63
2022/04/15 05:45:29;;;;;;;29.90;17.23;;;;;;;10.08;82.02;102844.22;5005895;28;20388;-63
2022/04/15 05:47:57;;;;;;;27.35;15.45;;;;;;;10.22;81.81;102834.59;5005376;28;20045;-63
2022/04/15 05:50:22;;;;;;;29.75;17.02;;;;;;;10.38;80.84;102839.81;5004964;28;20018;-63
2022/04/15 05:52:48;;;;;;;29.33;16.20;;;;;;;10.17;81.20;102846.00;5005546;28;20040;-62
2022/04/15 05:55:13;;;;;;;23.08;15.30;;;;;;;10.08;81.45;102857.38;5005192;28;20062;-63
2022/04/15 05:57:38;;;;;;;25.88;15.85;;;;;;;10.12;81.24;102853.91;5005786;28;20030;-64
2022/04/15 06:00:05;;;;;;;24.42;16.35;;;;;;;10.26;81.00;102850.41;5005032;28;20029;-62
2022/04/15 06:02:31;;;;;;;21.38;15.32;;;;;;;10.41;80.23;102853.00;5005380;28;20046;-64
2022/04/15 06:04:56;;;;;;;25.92;16.45;;;;;;;10.45;80.43;102851.25;5004669;28;20388;-64
2022/04/15 06:07:21;;;;;;;28.42;16.55;;;;;;;10.49;79.90;102853.03;5003525;28;20030;-65
2022/04/15 06:09:47;;;;;;;28.13;18.38;;;;;;;10.42;80.42;102851.25;5005544;28;20025;-63
2022/04/15 06:12:12;;;;;;;30.48;17.83;;;;;;;10.41;80.99;102852.16;5004365;28;20121;-63
2022/04/15 06:14:37;;;;;;;30.70;17.75;;;;;;;10.54;80.12;102863.59;5005431;28;20065;-64
2022/04/15 06:17:03;;;;;;;27.98;15.57;;;;;;;10.27;80.43;102863.56;5004629;28;20400;-64
2022/04/15 06:19:28;;;;;;;21.75;13.40;;;;;;;10.51;80.09;102867.09;5005801;28;20269;-64
2022/04/15 06:21:53;;;;;;;20.15;13.23;;;;;;;10.42;79.86;102867.06;5004376;28;20491;-63
2022/04/15 06:24:19;;;;;;;20.17;13.05;;;;;;;10.54;79.28;102864.44;5004364;28;20034;-63
2022/04/15 06:26:44;;;;;;;17.75;12.18;;;;;;;10.45;79.08;102872.34;5004934;28;20504;-65
2022/04/15 06:29:10;;;;;;;20.30;11.90;;;;;;;10.52;78.47;102867.97;5005044;28;20849;-63
2022/04/15 06:31:35;;;;;;;19.58;11.48;;;;;;;10.33;78.52;102870.59;5004685;28;20076;-62
2022/04/15 06:34:00;;;;;;;17.30;10.60;;;;;;;10.43;78.74;102874.09;5003377;28;20033;-62
2022/04/15 06:36:26;;;;;;;13.40;9.68;;;;;;;10.49;78.56;102876.75;4994400;28;20065;-62
2022/04/15 06:38:51;;;;;;;14.73;8.93;;;;;;;10.65;78.21;102884.66;4992821;28;20469;-60
2022/04/15 06:41:16;;;;;;;16.02;8.77;;;;;;;10.83;77.17;102886.38;4994449;28;20420;-61
2022/04/15 06:43:42;;;;;;;14.43;8.07;;;;;;;10.72;76.91;102882.00;4995490;28;20073;-61
2022/04/15 06:46:07;;;;;;;15.15;8.32;;;;;;;10.79;76.52;102892.53;4994505;28;20042;-65
2022/04/15 06:48:32;;;;;;;10.40;6.63;;;;;;;10.88;75.69;102897.81;4995315;28;20022;-64
2022/04/15 06:50:57;;;;;;;12.20;6.50;;;;;;;10.85;74.98;102901.34;4992877;28;20065;-67
2022/04/15 06:53:23;;;;;;;8.60;6.40;;;;;;;10.98;74.56;102901.28;4994190;28;20093;-63
2022/04/15 06:55:52;;;;;;;13.52;6.20;;;;;;;10.93;74.12;102916.25;4993108;28;20029;-65
2022/04/15 06:58:18;;;;;;;9.40;4.90;;;;;;;11.08;73.10;102904.78;5000257;28;20049;-64
2022/04/15 07:00:44;;;;;;;6.97;4.85;;;;;;;11.06;73.56;102912.72;5003191;28;20464;-64
2022/04/15 07:03:10;;;;;;;7.47;5.05;;;;;;;11.16;73.10;102907.38;5003532;28;20042;-65
2022/04/15 07:05:36;;;;;;;7.55;4.93;;;;;;;10.78;74.10;102917.16;5002275;28;20057;-62
2022/04/15 07:08:01;;;;;;;12.82;4.90;;;;;;;10.76;73.27;102918.91;5002552;28;20060;-63
2022/04/15 07:10:27;;;;;;;6.70;4.65;;;;;;;10.67;73.93;102911.88;5003357;28;20026;-63
2022/04/15 07:12:52;;;;;;;10.77;4.68;;;;;;;11.08;73.30;102915.34;5003988;28;20493;-62
2022/04/15 07:15:17;;;;;;;11.55;4.60;;;;;;;11.18;72.75;102911.81;5004926;28;20077;-62
2022/04/15 07:17:43;;;;;;;7.78;4.22;;;;;;;11.37;73.08;102912.59;5003604;28;20544;-61
2022/04/15 07:20:08;;;;;;;9.00;4.43;;;;;;;11.65;72.01;102916.00;5002366;28;20037;-65
2022/04/15 07:22:34;;;;;;;7.32;4.07;;;;;;;11.41;71.58;102917.88;5001897;28;20507;-65
2022/04/15 07:24:59;;;;;;;7.45;4.53;;;;;;;11.55;71.79;102925.72;5003845;28;20026;-61
2022/04/15 07:27:24;;;;;;;8.75;4.43;;;;;;;11.52;71.65;102923.97;5003941;28;20503;-61
2022/04/15 07:29:52;;;;;;;12.40;4.43;;;;;;;11.58;71.07;102923.94;5005011;28;20528;-61
2022/04/15 07:32:21;;;;;;;8.52;4.25;;;;;;;11.45;71.94;102922.25;5003703;28;20038;-61
2022/04/15 07:34:48;;;;;;;6.90;4.35;;;;;;;11.41;72.14;102923.16;5004903;28;20026;-61
2022/04/15 07:37:13;;;;;;;7.40;3.90;;;;;;;11.85;71.17;102934.38;5003578;28;20045;-60
2022/04/15 07:39:39;;;;;;;7.43;4.25;;;;;;;12.17;70.62;102930.69;5003589;28;20022;-60
2022/04/15 07:42:04;;;;;;;7.03;4.00;;;;;;;12.32;70.22;102935.00;5004650;28;20034;-60
2022/04/15 07:44:30;;;;;;;5.82;3.90;;;;;;;12.58;68.53;102920.66;5003702;28;20543;-64
2022/04/15 07:46:55;;;;;;;10.35;4.00;;;;;;;12.41;68.10;102926.13;5004022;28;20125;-68
2022/04/15 07:49:20;;;;;;;5.43;3.65;;;;;;;12.47;69.01;102922.53;5003976;28;20254;-61
2022/04/15 07:51:46;;;;;;;6.85;3.90;;;;;;;12.35;68.97;102928.81;5003260;28;20076;-64
2022/04/15 07:54:12;;;;;;;4.93;3.72;;;;;;;12.63;68.45;102929.44;5003674;28;20040;-64
2022/04/15 07:56:37;;;;;;;5.97;3.33;;;;;;;12.75;68.05;102920.53;5002443;28;20061;-64
2022/04/15 07:59:03;;;;;;;8.93;3.42;;;;;;;12.39;68.78;102930.53;5004562;28;20077;-66
2022/04/15 08:01:29;;;;;;;10.00;3.30;;;;;;;12.16;68.89;102930.72;5001102;28;20022;-64
2022/04/15 08:03:55;;;;;;;5.10;3.00;;;;;;;12.26;69.23;102927.09;5005290;28;20038;-64
2022/04/15 08:06:22;;;;;;;8.23;3.58;;;;;;;12.51;67.83;102926.91;5005805;28;20033;-63
2022/04/15 08:08:48;;;;;;;7.95;3.17;;;;;;;12.57;67.65;102928.63;5006425;28;20030;-64
2022/04/15 08:11:13;;;;;;;6.63;3.17;;;;;;;12.78;67.61;102927.53;5006380;28;20064;-65
2022/04/15 08:13:39;;;;;;;8.32;2.80;;;;;;;12.99;66.39;102930.88;5006542;28;20022;-65
2022/04/15 08:16:04;;;;;;;6.47;2.67;;;;;;;13.02;66.46;102925.53;5005961;28;20017;-65
2022/04/15 08:18:30;;;;;;;4.85;2.30;;;;;;;12.95;65.92;102923.84;5006506;28;20148;-64
2022/04/15 08:20:56;;;;;;;8.93;3.08;;;;;;;12.99;65.78;102933.50;5006082;28;20022;-65
2022/04/15 08:23:22;;;;;;;8.32;3.17;;;;;;;12.95;65.81;102931.78;5006234;28;20076;-65
2022/04/15 08:25:47;;;;;;;8.43;2.67;;;;;;;12.83;66.63;102941.63;5005388;28;20034;-64
2022/04/15 08:28:13;;;;;;;4.82;2.70;;;;;;;12.77;67.00;102944.31;5006613;28;20036;-65
2022/04/15 08:30:39;;;;;;;6.82;2.58;;;;;;;12.80;66.39;102939.00;5006240;28;20373;-65
2022/04/15 08:33:05;;;;;;;8.48;2.88;;;;;;;12.79;65.40;102944.31;5005782;28;20040;-65
2022/04/15 08:35:31;;;;;;;5.85;2.65;;;;;;;12.55;66.55;102952.44;5005508;28;20465;-63
2022/04/15 08:37:57;;;;;;;5.45;2.92;;;;;;;12.58;66.48;102951.53;5005021;28;20037;-66
2022/04/15 08:40:22;;;;;;;4.72;2.85;;;;;;;12.71;66.37;102952.31;5006304;28;20034;-64
2022/04/15 08:42:47;;;;;;;13.88;3.20;;;;;;;12.53;67.20;102954.22;5005287;28;20044;-63
2022/04/15 08:45:13;;;;;;;5.45;3.15;;;;;;;12.61;66.76;102951.50;5005219;28;20121;-62
2022/04/15 08:47:42;;;;;;;6.50;3.05;;;;;;;12.63;67.07;102955.91;4992108;28;20040;-63
2022/04/15 08:50:10;;;;;;;6.28;3.00;;;;;;;12.50;67.11;102957.75;4985397;28;20018;-63
2022/04/15 08:52:36;;;;;;;7.77;3.03;;;;;;;12.64;67.03;102960.28;4983075;28;20030;-64
2022/04/15 08:55:02;;;;;;;9.98;3.38;;;;;;;12.44;66.83;102957.81;4986626;28;20279;-63
2022/04/15 08:57:28;;;;;;;6.93;3.05;;;;;;;12.73;67.45;102955.78;4985084;28;20149;-62
2022/04/15 08:59:54;;;;;;;5.30;2.40;;;;;;;13.07;66.11;102959.91;4986074;28;20109;-64
2022/04/15 09:02:33;;;;;;;3.78;2.67;;;;;;;13.02;65.10;102957.28;4985324;28;20475;-62
2022/04/15 09:05:05;;;;;;;2.67;2.40;;;;;;;13.36;64.51;102964.88;4982587;28;20460;-62
2022/04/15 09:07:32;;;;;;;4.65;2.45;;;;;;;13.54;64.12;102962.91;4984674;28;20287;-62
2022/04/15 09:09:59;;;;;;;5.30;2.40;;;;;;;14.09;63.48;102968.38;4985768;28;20030;-62
2022/04/15 09:12:28;;;;;;;5.90;2.22;;;;;;;13.87;62.15;102968.69;4984638;28;20111;-62
2022/04/15 09:14:58;;;;;;;6.65;2.53;;;;;;;13.92;62.15;102965.97;4985314;28;20025;-63
2022/04/15 09:17:23;;;;;;;;;;;;;;;13.58;62.09;102969.06;4982420;28;20384;-63
2022/04/15 09:19:52;;;;;;;6.43;2.28;;;;;;;13.57;61.83;102970.84;4985273;28;19913;-64
2022/04/15 09:22:17;;;;;;;3.60;2.90;;;;;;;13.50;62.27;102980.63;4984906;28;20113;-63
2022/04/15 09:24:43;;;;;;;4.07;2.65;;;;;;;13.52;62.63;102983.28;4986589;28;20429;-63
2022/04/15 09:27:09;;;;;;;4.93;2.40;;;;;;;13.76;61.73;102981.22;4985445;28;20521;-63
2022/04/15 09:29:39;;;;;;;6.60;2.40;;;;;;;14.12;61.71;102992.19;4985351;28;20033;-63
2022/04/15 09:32:07;;;;;;;8.25;2.22;;;;;;;14.31;60.75;102991.03;4985657;28;20323;-65
2022/04/15 09:34:33;;;;;;;2.80;2.60;;;;;;;14.05;61.36;102987.88;4984310;28;20496;-64
2022/04/15 09:37:05;;;;;;;6.50;3.00;;;;;;;13.93;61.86;102975.66;4984486;28;20041;-63
2022/04/15 09:39:30;;;;;;;4.43;2.85;;;;;;;14.02;62.82;102993.22;4983369;28;20121;-63
2022/04/15 09:41:55;;;;;;;4.55;2.40;;;;;;;14.09;62.44;102986.91;4984039;28;20411;-63
2022/04/15 09:44:22;;;;;;;3.28;2.35;;;;;;;14.12;60.79;102994.84;4984072;28;20116;-63
2022/04/15 09:46:51;;;;;;;4.43;2.55;;;;;;;14.03;61.61;102987.03;4985543;28;20693;-63
2022/04/15 09:49:16;;;;;;;5.60;2.50;;;;;;;13.76;60.99;102992.66;4983614;28;20033;-63
2022/04/15 09:51:51;;;;;;;3.47;2.05;;;;;;;13.62;61.62;103000.81;4984743;28;20028;-63
2022/04/15 09:54:27;;;;;;;3.92;2.17;;;;;;;13.63;62.25;102996.34;4985216;28;20022;-62
2022/04/15 09:56:57;;;;;;;3.42;2.80;;;;;;;14.07;61.22;102996.69;4985131;28;20543;-64
2022/04/15 09:59:24;;;;;;;3.63;2.53;;;;;;;13.94;60.78;102992.44;4977892;28;20061;-67
2022/04/15 10:01:58;;;;;;;3.72;2.22;;;;;;;13.58;61.62;103006.16;4985582;28;20032;-62
2022/04/15 10:04:24;;;;;;;3.28;2.47;;;;;;;13.84;62.15;102999.63;4981799;28;20112;-61
2022/04/15 10:06:50;;;;;;;6.00;2.08;;;;;;;14.47;60.40;103010.22;4984873;28;20887;-62
2022/04/15 10:09:15;;;;;;;2.70;1.85;;;;;;;14.55;59.58;103004.81;4981306;28;20030;-63
2022/04/15 10:11:44;;;;;;;5.97;2.50;;;;;;;14.36;59.57;103003.31;4976013;28;20427;-63
2022/04/15 10:14:15;;;;;;;4.35;2.13;;;;;;;14.21;59.15;103003.56;4975675;28;20448;-61
2022/04/15 10:16:42;;;;;;;3.38;1.80;;;;;;;14.30;58.85;103002.56;4984059;28;20038;-64
2022/04/15 10:19:08;;;;;;;7.65;2.17;;;;;;;14.28;59.48;102997.28;4981172;28;20022;-62
2022/04/15 10:21:44;;;;;;;3.05;2.00;;;;;;;14.27;59.58;102996.38;4982057;28;20014;-63
2022/04/15 10:24:10;;;;;;;6.22;2.53;;;;;;;14.25;59.59;102989.34;4981979;28;20029;-61
2022/04/15 10:26:38;;;;;;;4.78;2.22;;;;;;;14.48;59.31;102993.44;4983954;28;20380;-66
2022/04/15 10:29:04;;;;;;;2.05;1.70;;;;;;;14.52;59.48;102990.72;4983010;28;20021;-65
2022/04/15 10:31:44;;;;;;;7.50;2.60;;;;;;;14.26;59.42;102999.94;4984276;28;20030;-64
2022/04/15 10:34:15;;;;;;;3.75;2.10;;;;;;;14.10;59.82;102996.66;4983637;28;20297;-63
2022/04/15 10:37:05;;;;;;;5.20;1.88;;;;;;;14.33;60.69;102998.06;4983490;28;20107;-64
2022/04/15 10:39:45;;;;;;;3.83;2.15;;;;;;;14.30;59.40;102998.09;4982867;28;20950;-65
2022/04/15 10:42:17;;;;;;;5.07;2.00;;;;;;;14.33;60.16;102997.22;4987376;28;20586;-65
2022/04/15 10:44:44;;;;;;;5.70;2.00;;;;;;;14.25;59.75;102989.34;5002401;28;20468;-63
2022/04/15 10:47:16;;;;;;;2.00;1.80;;;;;;;14.56;59.14;102988.88;5001590;28;20483;-64
2022/04/15 10:49:54;;;;;;;4.95;2.20;;;;;;;14.77;60.30;102994.72;5003948;28;20034;-63
2022/04/15 10:52:24;;;;;;;4.68;2.17;;;;;;;15.08;58.37;102988.03;5005250;28;20045;-61
2022/04/15 10:55:09;;;;;;;3.50;2.03;;;;;;;15.11;59.45;102985.31;5003844;28;20049;-61
2022/04/15 10:57:43;;;;;;;5.47;1.70;;;;;;;15.53;58.49;102987.13;4995508;28;20222;-61
2022/04/15 11:03:03;;;;;;;1.70;1.60;;;;;;;15.61;57.33;102974.59;5000265;28;20065;-63
2022/04/15 11:05:41;;;;;;;3.30;2.15;;;;;;;15.24;57.89;102984.19;4991353;28;20026;-63
2022/04/15 11:08:11;;;;;;;4.10;1.90;;;;;;;14.97;58.99;102978.50;5000592;28;20045;-64
2022/04/15 11:10:40;;;;;;;3.00;2.00;;;;;;;15.44;59.11;102984.69;5003098;28;20030;-65
2022/04/15 11:13:09;;;;;;;4.38;2.13;;;;;;;15.55;58.01;102977.38;5001752;28;20136;-64
2022/04/15 11:16:00;;;;;;;4.93;2.30;;;;;;;16.06;58.04;102979.84;5002529;28;20026;-64
2022/04/15 11:18:54;;;;;;;4.32;2.42;;;;;;;15.65;57.33;102981.56;5003175;28;20060;-64
2022/04/15 11:21:23;;;;;;;3.88;1.73;;;;;;;16.20;58.26;102984.84;4997765;28;20033;-63